sensor_id;sensor_type;location;lat;lon;timestamp;temperature;humidity
16578;DHT22;8401;52.528;13.340;2023-04-10T00:01:39;8.10;99.90
16578;DHT22;8401;52.528;13.340;2023-04-10T00:04:05;8.20;99.90
16578;DHT22;8401;52.528;13.340;2023-04-10T00:06:31;8.10;99.90
16578;DHT22;8401;52.528;13.340;2023-04-10T00:08:58;8.10;99.90
16578;DHT22;8401;52.528;13.340;2023-04-10T00:11:24;8.10;99.90
16578;DHT22;8401;52.528;13.340;2023-04-10T00:13:50;8.10;99.90
16578;DHT22;8401;52.528;13.340;2023-04-10T00:16:16;8.10;99.90
16578;DHT22;8401;52.528;13.340;2023-04-10T00:18:41;8.10;99.90
16578;DHT22;8401;52.528;13.340;2023-04-10T00:21:07;8.00;99.90
16578;DHT22;8401;52.528;13.340;2023-04-10T00:23:33;8.10;99.90
16578;DHT22;8401;52.528;13.340;2023-04-10T00:26:00;8.10;99.90
16578;DHT22;8401;52.528;13.340;2023-04-10T00:28:25;8.00;99.90
16578;DHT22;8401;52.528;13.340;2023-04-10T00:30:52;8.00;99.90
16578;DHT22;8401;52.528;13.340;2023-04-10T00:33:17;8.10;99.90
16578;DHT22;8401;52.528;13.340;2023-04-10T00:35:43;8.00;99.90
16578;DHT22;8401;52.528;13.340;2023-04-10T00:38:09;8.00;99.90
16578;DHT22;8401;52.528;13.340;2023-04-10T00:40:35;8.00;99.90
16578;DHT22;8401;52.528;13.340;2023-04-10T00:43:00;8.00;99.90
16578;DHT22;8401;52.528;13.340;2023-04-10T00:45:26;8.00;99.90
16578;DHT22;8401;52.528;13.340;2023-04-10T00:47:52;8.00;99.90
16578;DHT22;8401;52.528;13.340;2023-04-10T00:50:20;8.10;99.90
16578;DHT22;8401;52.528;13.340;2023-04-10T00:52:46;8.00;99.90
16578;DHT22;8401;52.528;13.340;2023-04-10T00:55:13;8.00;99.90
16578;DHT22;8401;52.528;13.340;2023-04-10T00:57:44;8.00;99.90
16578;DHT22;8401;52.528;13.340;2023-04-10T01:00:12;8.00;99.90
16578;DHT22;8401;52.528;13.340;2023-04-10T01:02:38;7.90;99.90
16578;DHT22;8401;52.528;13.340;2023-04-10T01:05:04;7.80;99.90
16578;DHT22;8401;52.528;13.340;2023-04-10T01:07:50;7.80;99.90
16578;DHT22;8401;52.528;13.340;2023-04-10T01:10:33;7.80;99.90
16578;DHT22;8401;52.528;13.340;2023-04-10T01:13:24;7.80;99.90
16578;DHT22;8401;52.528;13.340;2023-04-10T01:16:00;7.80;99.90
16578;DHT22;8401;52.528;13.340;2023-04-10T01:20:56;7.70;99.90
16578;DHT22;8401;52.528;13.340;2023-04-10T01:26:15;7.70;99.90
16578;DHT22;8401;52.528;13.340;2023-04-10T01:28:59;7.70;99.90
16578;DHT22;8401;52.528;13.340;2023-04-10T01:31:48;7.70;99.90
16578;DHT22;8401;52.528;13.340;2023-04-10T01:34:21;7.70;99.90
16578;DHT22;8401;52.528;13.340;2023-04-10T01:36:54;7.70;99.90
16578;DHT22;8401;52.528;13.340;2023-04-10T01:39:21;7.70;99.90
16578;DHT22;8401;52.528;13.340;2023-04-10T01:41:50;7.70;99.90
16578;DHT22;8401;52.528;13.340;2023-04-10T01:44:23;7.70;99.90
16578;DHT22;8401;52.528;13.340;2023-04-10T01:46:52;7.60;99.90
16578;DHT22;8401;52.528;13.340;2023-04-10T01:49:19;7.60;99.90
16578;DHT22;8401;52.528;13.340;2023-04-10T01:51:46;7.60;99.90
16578;DHT22;8401;52.528;13.340;2023-04-10T01:54:13;7.60;99.90
16578;DHT22;8401;52.528;13.340;2023-04-10T01:56:40;7.60;99.90
16578;DHT22;8401;52.528;13.340;2023-04-10T01:59:06;7.50;99.90
16578;DHT22;8401;52.528;13.340;2023-04-10T02:01:32;7.50;99.90
16578;DHT22;8401;52.528;13.340;2023-04-10T02:03:58;7.50;99.90
16578;DHT22;8401;52.528;13.340;2023-04-10T02:08:56;7.50;99.90
16578;DHT22;8401;52.528;13.340;2023-04-10T02:11:35;7.40;99.90
16578;DHT22;8401;52.528;13.340;2023-04-10T02:14:04;7.50;99.90
16578;DHT22;8401;52.528;13.340;2023-04-10T02:16:32;7.40;99.90
16578;DHT22;8401;52.528;13.340;2023-04-10T02:19:00;7.40;99.90
16578;DHT22;8401;52.528;13.340;2023-04-10T02:21:26;7.40;99.90
16578;DHT22;8401;52.528;13.340;2023-04-10T02:23:55;7.40;99.90
16578;DHT22;8401;52.528;13.340;2023-04-10T02:26:21;7.40;99.90
16578;DHT22;8401;52.528;13.340;2023-04-10T02:28:46;7.40;99.90
16578;DHT22;8401;52.528;13.340;2023-04-10T02:31:12;7.40;99.90
16578;DHT22;8401;52.528;13.340;2023-04-10T02:33:37;7.40;99.90
16578;DHT22;8401;52.528;13.340;2023-04-10T02:36:03;7.30;99.90
16578;DHT22;8401;52.528;13.340;2023-04-10T02:38:29;7.30;99.90
16578;DHT22;8401;52.528;13.340;2023-04-10T02:40:55;7.30;99.90
16578;DHT22;8401;52.528;13.340;2023-04-10T02:43:20;7.30;99.90
16578;DHT22;8401;52.528;13.340;2023-04-10T02:45:46;7.30;99.90
16578;DHT22;8401;52.528;13.340;2023-04-10T02:48:12;7.30;99.90
16578;DHT22;8401;52.528;13.340;2023-04-10T02:50:38;7.20;99.90
16578;DHT22;8401;52.528;13.340;2023-04-10T02:53:04;7.20;99.90
16578;DHT22;8401;52.528;13.340;2023-04-10T02:55:29;7.20;99.90
16578;DHT22;8401;52.528;13.340;2023-04-10T02:57:55;7.30;99.90
16578;DHT22;8401;52.528;13.340;2023-04-10T03:00:21;7.40;99.90
16578;DHT22;8401;52.528;13.340;2023-04-10T03:02:47;7.40;99.90
16578;DHT22;8401;52.528;13.340;2023-04-10T03:05:13;7.40;99.90
16578;DHT22;8401;52.528;13.340;2023-04-10T03:07:38;7.40;99.90
16578;DHT22;8401;52.528;13.340;2023-04-10T03:10:04;7.30;99.90
16578;DHT22;8401;52.528;13.340;2023-04-10T03:12:30;7.30;99.90
16578;DHT22;8401;52.528;13.340;2023-04-10T03:14:56;7.30;99.90
16578;DHT22;8401;52.528;13.340;2023-04-10T03:17:21;7.20;99.90
16578;DHT22;8401;52.528;13.340;2023-04-10T03:19:47;7.20;99.90
16578;DHT22;8401;52.528;13.340;2023-04-10T03:22:12;7.20;99.90
16578;DHT22;8401;52.528;13.340;2023-04-10T03:24:38;7.20;99.90
16578;DHT22;8401;52.528;13.340;2023-04-10T03:27:05;7.10;99.90
16578;DHT22;8401;52.528;13.340;2023-04-10T03:29:31;7.10;99.90
16578;DHT22;8401;52.528;13.340;2023-04-10T03:31:56;7.10;99.90
16578;DHT22;8401;52.528;13.340;2023-04-10T03:34:22;7.00;99.90
16578;DHT22;8401;52.528;13.340;2023-04-10T03:36:47;7.00;99.90
16578;DHT22;8401;52.528;13.340;2023-04-10T03:39:13;7.10;99.90
16578;DHT22;8401;52.528;13.340;2023-04-10T03:41:39;7.10;99.90
16578;DHT22;8401;52.528;13.340;2023-04-10T03:44:04;7.00;99.90
16578;DHT22;8401;52.528;13.340;2023-04-10T03:46:30;7.00;99.90
16578;DHT22;8401;52.528;13.340;2023-04-10T03:48:56;6.90;99.90
16578;DHT22;8401;52.528;13.340;2023-04-10T03:51:22;6.90;99.90
16578;DHT22;8401;52.528;13.340;2023-04-10T03:53:49;6.90;99.90
16578;DHT22;8401;52.528;13.340;2023-04-10T03:56:15;7.00;99.90
16578;DHT22;8401;52.528;13.340;2023-04-10T03:58:41;6.90;99.90
16578;DHT22;8401;52.528;13.340;2023-04-10T04:01:06;6.80;99.90
16578;DHT22;8401;52.528;13.340;2023-04-10T04:03:32;6.80;99.90
16578;DHT22;8401;52.528;13.340;2023-04-10T04:05:58;6.80;99.90
16578;DHT22;8401;52.528;13.340;2023-04-10T04:08:23;6.80;99.90
16578;DHT22;8401;52.528;13.340;2023-04-10T04:10:49;6.70;99.90
16578;DHT22;8401;52.528;13.340;2023-04-10T04:13:15;6.70;99.90
16578;DHT22;8401;52.528;13.340;2023-04-10T04:15:40;6.70;99.90
16578;DHT22;8401;52.528;13.340;2023-04-10T04:18:07;6.70;99.90
16578;DHT22;8401;52.528;13.340;2023-04-10T04:20:33;6.60;99.90
16578;DHT22;8401;52.528;13.340;2023-04-10T04:22:59;6.60;99.90
16578;DHT22;8401;52.528;13.340;2023-04-10T04:25:24;6.60;99.90
16578;DHT22;8401;52.528;13.340;2023-04-10T04:27:50;6.70;99.90
16578;DHT22;8401;52.528;13.340;2023-04-10T04:30:16;6.70;99.90
16578;DHT22;8401;52.528;13.340;2023-04-10T04:32:41;6.80;99.90
16578;DHT22;8401;52.528;13.340;2023-04-10T04:35:07;6.70;99.90
16578;DHT22;8401;52.528;13.340;2023-04-10T04:37:33;6.80;99.90
16578;DHT22;8401;52.528;13.340;2023-04-10T04:39:59;6.80;99.90
16578;DHT22;8401;52.528;13.340;2023-04-10T04:42:25;6.80;99.90
16578;DHT22;8401;52.528;13.340;2023-04-10T04:44:51;6.80;99.90
16578;DHT22;8401;52.528;13.340;2023-04-10T04:47:16;6.90;99.90
16578;DHT22;8401;52.528;13.340;2023-04-10T04:49:42;6.90;99.90
16578;DHT22;8401;52.528;13.340;2023-04-10T04:52:08;6.90;99.90
16578;DHT22;8401;52.528;13.340;2023-04-10T04:54:33;6.90;99.90
16578;DHT22;8401;52.528;13.340;2023-04-10T04:56:59;6.90;99.90
16578;DHT22;8401;52.528;13.340;2023-04-10T04:59:26;6.90;99.90
16578;DHT22;8401;52.528;13.340;2023-04-10T05:01:51;7.00;99.90
16578;DHT22;8401;52.528;13.340;2023-04-10T05:04:17;7.00;99.90
16578;DHT22;8401;52.528;13.340;2023-04-10T05:06:44;7.00;99.90
16578;DHT22;8401;52.528;13.340;2023-04-10T05:09:10;7.10;99.90
16578;DHT22;8401;52.528;13.340;2023-04-10T05:11:36;7.30;99.90
16578;DHT22;8401;52.528;13.340;2023-04-10T05:14:01;7.40;99.90
16578;DHT22;8401;52.528;13.340;2023-04-10T05:16:27;7.40;99.90
16578;DHT22;8401;52.528;13.340;2023-04-10T05:18:53;7.40;99.90
16578;DHT22;8401;52.528;13.340;2023-04-10T05:21:19;7.50;99.90
16578;DHT22;8401;52.528;13.340;2023-04-10T05:23:44;7.50;99.90
16578;DHT22;8401;52.528;13.340;2023-04-10T05:26:10;7.40;99.90
16578;DHT22;8401;52.528;13.340;2023-04-10T05:28:35;7.50;99.90
16578;DHT22;8401;52.528;13.340;2023-04-10T05:31:01;7.50;99.90
16578;DHT22;8401;52.528;13.340;2023-04-10T05:33:27;7.90;99.90
16578;DHT22;8401;52.528;13.340;2023-04-10T05:35:52;7.80;99.90
16578;DHT22;8401;52.528;13.340;2023-04-10T05:38:18;8.00;99.90
16578;DHT22;8401;52.528;13.340;2023-04-10T05:40:44;8.20;99.90
16578;DHT22;8401;52.528;13.340;2023-04-10T05:43:10;8.50;99.90
16578;DHT22;8401;52.528;13.340;2023-04-10T05:45:35;8.60;99.90
16578;DHT22;8401;52.528;13.340;2023-04-10T05:48:01;8.60;99.90
16578;DHT22;8401;52.528;13.340;2023-04-10T05:50:27;8.60;99.90
16578;DHT22;8401;52.528;13.340;2023-04-10T05:52:53;8.60;99.90
16578;DHT22;8401;52.528;13.340;2023-04-10T05:55:19;8.70;99.90
16578;DHT22;8401;52.528;13.340;2023-04-10T05:57:45;8.70;99.90
16578;DHT22;8401;52.528;13.340;2023-04-10T06:00:11;8.90;99.90
16578;DHT22;8401;52.528;13.340;2023-04-10T06:02:38;8.90;99.90
16578;DHT22;8401;52.528;13.340;2023-04-10T06:05:04;9.10;99.90
16578;DHT22;8401;52.528;13.340;2023-04-10T06:07:30;9.20;99.90
16578;DHT22;8401;52.528;13.340;2023-04-10T06:09:57;9.40;99.90
16578;DHT22;8401;52.528;13.340;2023-04-10T06:12:23;9.40;99.90
16578;DHT22;8401;52.528;13.340;2023-04-10T06:14:48;9.30;99.90
16578;DHT22;8401;52.528;13.340;2023-04-10T06:17:14;9.10;99.90
16578;DHT22;8401;52.528;13.340;2023-04-10T06:19:40;9.20;99.90
16578;DHT22;8401;52.528;13.340;2023-04-10T06:22:05;9.60;99.90
16578;DHT22;8401;52.528;13.340;2023-04-10T06:24:31;9.40;99.90
16578;DHT22;8401;52.528;13.340;2023-04-10T06:26:57;9.60;99.90
16578;DHT22;8401;52.528;13.340;2023-04-10T06:29:23;9.90;99.90
16578;DHT22;8401;52.528;13.340;2023-04-10T06:31:48;10.00;99.90
16578;DHT22;8401;52.528;13.340;2023-04-10T06:34:14;10.10;99.90
16578;DHT22;8401;52.528;13.340;2023-04-10T06:36:40;10.20;99.90
16578;DHT22;8401;52.528;13.340;2023-04-10T06:39:06;10.30;99.90
16578;DHT22;8401;52.528;13.340;2023-04-10T06:41:31;10.20;99.90
16578;DHT22;8401;52.528;13.340;2023-04-10T06:43:57;10.20;99.90
16578;DHT22;8401;52.528;13.340;2023-04-10T06:46:22;10.30;99.90
16578;DHT22;8401;52.528;13.340;2023-04-10T06:48:48;10.30;99.90
16578;DHT22;8401;52.528;13.340;2023-04-10T06:51:14;10.30;99.90
16578;DHT22;8401;52.528;13.340;2023-04-10T06:53:39;10.20;99.90
16578;DHT22;8401;52.528;13.340;2023-04-10T06:56:05;10.10;99.90
16578;DHT22;8401;52.528;13.340;2023-04-10T06:58:31;10.10;99.90
16578;DHT22;8401;52.528;13.340;2023-04-10T07:00:57;10.10;99.90
16578;DHT22;8401;52.528;13.340;2023-04-10T07:03:24;10.10;99.90
16578;DHT22;8401;52.528;13.340;2023-04-10T07:05:50;10.10;99.90
16578;DHT22;8401;52.528;13.340;2023-04-10T07:08:16;10.20;99.90
16578;DHT22;8401;52.528;13.340;2023-04-10T07:10:42;10.30;99.90
16578;DHT22;8401;52.528;13.340;2023-04-10T07:13:08;10.30;99.90
16578;DHT22;8401;52.528;13.340;2023-04-10T07:15:33;10.40;99.90
16578;DHT22;8401;52.528;13.340;2023-04-10T07:17:59;10.50;99.90
16578;DHT22;8401;52.528;13.340;2023-04-10T07:20:24;10.40;99.90
16578;DHT22;8401;52.528;13.340;2023-04-10T07:22:50;10.70;99.90
16578;DHT22;8401;52.528;13.340;2023-04-10T07:25:16;10.70;99.90
16578;DHT22;8401;52.528;13.340;2023-04-10T07:27:42;10.60;99.90
16578;DHT22;8401;52.528;13.340;2023-04-10T07:30:08;10.70;99.90
16578;DHT22;8401;52.528;13.340;2023-04-10T07:32:34;10.70;99.90
16578;DHT22;8401;52.528;13.340;2023-04-10T07:35:01;10.80;99.90
16578;DHT22;8401;52.528;13.340;2023-04-10T07:37:27;11.00;99.90
16578;DHT22;8401;52.528;13.340;2023-04-10T07:39:53;11.00;99.90
16578;DHT22;8401;52.528;13.340;2023-04-10T07:42:18;11.20;99.90
16578;DHT22;8401;52.528;13.340;2023-04-10T07:44:44;11.20;99.90
16578;DHT22;8401;52.528;13.340;2023-04-10T07:47:09;11.30;99.90
16578;DHT22;8401;52.528;13.340;2023-04-10T07:49:35;11.50;99.90
16578;DHT22;8401;52.528;13.340;2023-04-10T07:52:01;11.70;99.90
16578;DHT22;8401;52.528;13.340;2023-04-10T07:54:27;11.90;99.90
16578;DHT22;8401;52.528;13.340;2023-04-10T07:56:55;11.90;99.90
16578;DHT22;8401;52.528;13.340;2023-04-10T07:59:21;11.80;99.90
16578;DHT22;8401;52.528;13.340;2023-04-10T08:01:46;12.00;99.90
16578;DHT22;8401;52.528;13.340;2023-04-10T08:04:12;12.40;99.90
16578;DHT22;8401;52.528;13.340;2023-04-10T08:06:38;12.70;99.90
16578;DHT22;8401;52.528;13.340;2023-04-10T08:09:03;13.00;99.90
16578;DHT22;8401;52.528;13.340;2023-04-10T08:11:31;12.70;99.90
16578;DHT22;8401;52.528;13.340;2023-04-10T08:13:58;13.40;99.90
16578;DHT22;8401;52.528;13.340;2023-04-10T08:16:34;13.60;99.90
16578;DHT22;8401;52.528;13.340;2023-04-10T08:19:01;14.00;99.90
16578;DHT22;8401;52.528;13.340;2023-04-10T08:21:28;14.20;99.90
16578;DHT22;8401;52.528;13.340;2023-04-10T08:23:58;14.50;99.90
16578;DHT22;8401;52.528;13.340;2023-04-10T08:26:25;14.60;99.90
16578;DHT22;8401;52.528;13.340;2023-04-10T08:28:52;15.20;99.90
16578;DHT22;8401;52.528;13.340;2023-04-10T08:31:20;15.40;99.90
16578;DHT22;8401;52.528;13.340;2023-04-10T08:33:47;15.60;99.90
16578;DHT22;8401;52.528;13.340;2023-04-10T08:36:13;15.50;99.90
16578;DHT22;8401;52.528;13.340;2023-04-10T08:38:45;15.40;99.90
16578;DHT22;8401;52.528;13.340;2023-04-10T08:41:12;16.00;99.90
16578;DHT22;8401;52.528;13.340;2023-04-10T08:43:38;15.90;99.90
16578;DHT22;8401;52.528;13.340;2023-04-10T08:46:05;17.10;99.90
16578;DHT22;8401;52.528;13.340;2023-04-10T08:49:01;18.80;99.90
16578;DHT22;8401;52.528;13.340;2023-04-10T08:51:49;19.90;99.90
16578;DHT22;8401;52.528;13.340;2023-04-10T08:54:23;21.10;99.90
16578;DHT22;8401;52.528;13.340;2023-04-10T08:56:52;20.80;99.90
16578;DHT22;8401;52.528;13.340;2023-04-10T08:59:18;22.40;99.90
16578;DHT22;8401;52.528;13.340;2023-04-10T09:01:44;22.00;99.90
16578;DHT22;8401;52.528;13.340;2023-04-10T09:04:12;23.50;99.90
16578;DHT22;8401;52.528;13.340;2023-04-10T09:06:38;23.70;99.90
16578;DHT22;8401;52.528;13.340;2023-04-10T09:09:07;23.30;99.90
16578;DHT22;8401;52.528;13.340;2023-04-10T09:14:21;24.10;99.90
16578;DHT22;8401;52.528;13.340;2023-04-10T09:16:47;23.00;99.90
16578;DHT22;8401;52.528;13.340;2023-04-10T09:19:15;22.80;99.90
16578;DHT22;8401;52.528;13.340;2023-04-10T09:21:53;24.10;99.90
16578;DHT22;8401;52.528;13.340;2023-04-10T09:24:19;21.90;99.90
16578;DHT22;8401;52.528;13.340;2023-04-10T09:26:45;22.60;99.90
16578;DHT22;8401;52.528;13.340;2023-04-10T09:29:11;22.90;99.90
16578;DHT22;8401;52.528;13.340;2023-04-10T09:31:38;22.00;99.90
16578;DHT22;8401;52.528;13.340;2023-04-10T09:34:22;23.20;99.90
16578;DHT22;8401;52.528;13.340;2023-04-10T09:36:58;22.90;99.90
16578;DHT22;8401;52.528;13.340;2023-04-10T09:41:58;22.40;99.90
16578;DHT22;8401;52.528;13.340;2023-04-10T09:44:29;23.80;99.90
16578;DHT22;8401;52.528;13.340;2023-04-10T09:46:56;25.90;99.90
16578;DHT22;8401;52.528;13.340;2023-04-10T09:49:22;26.20;99.90
16578;DHT22;8401;52.528;13.340;2023-04-10T09:51:48;25.50;99.90
16578;DHT22;8401;52.528;13.340;2023-04-10T09:54:14;25.90;99.90
16578;DHT22;8401;52.528;13.340;2023-04-10T09:56:40;25.00;99.90
16578;DHT22;8401;52.528;13.340;2023-04-10T09:59:09;26.10;99.90
16578;DHT22;8401;52.528;13.340;2023-04-10T10:01:38;25.80;99.90
16578;DHT22;8401;52.528;13.340;2023-04-10T10:04:04;25.70;99.90
16578;DHT22;8401;52.528;13.340;2023-04-10T10:06:31;25.50;99.90
16578;DHT22;8401;52.528;13.340;2023-04-10T10:09:04;24.40;99.90
16578;DHT22;8401;52.528;13.340;2023-04-10T10:11:33;26.00;99.90
16578;DHT22;8401;52.528;13.340;2023-04-10T10:14:02;26.80;99.90
16578;DHT22;8401;52.528;13.340;2023-04-10T10:16:49;26.40;99.90
16578;DHT22;8401;52.528;13.340;2023-04-10T10:19:27;26.40;99.90
16578;DHT22;8401;52.528;13.340;2023-04-10T10:21:54;25.80;99.90
16578;DHT22;8401;52.528;13.340;2023-04-10T10:24:21;25.60;99.90
16578;DHT22;8401;52.528;13.340;2023-04-10T10:26:49;25.00;99.90
16578;DHT22;8401;52.528;13.340;2023-04-10T10:29:15;25.00;99.90
16578;DHT22;8401;52.528;13.340;2023-04-10T10:31:43;24.90;99.90
16578;DHT22;8401;52.528;13.340;2023-04-10T10:34:11;25.30;99.90
16578;DHT22;8401;52.528;13.340;2023-04-10T10:36:38;25.80;99.90
16578;DHT22;8401;52.528;13.340;2023-04-10T10:39:34;25.80;99.90
16578;DHT22;8401;52.528;13.340;2023-04-10T10:42:08;26.70;99.90
16578;DHT22;8401;52.528;13.340;2023-04-10T10:44:44;27.30;99.90
16578;DHT22;8401;52.528;13.340;2023-04-10T10:47:16;26.60;99.90
16578;DHT22;8401;52.528;13.340;2023-04-10T10:57:58;26.40;99.90
16578;DHT22;8401;52.528;13.340;2023-04-10T11:00:26;25.40;99.90
16578;DHT22;8401;52.528;13.340;2023-04-10T11:13:30;28.10;99.90
16578;DHT22;8401;52.528;13.340;2023-04-10T11:15:57;27.90;99.90
16578;DHT22;8401;52.528;13.340;2023-04-10T11:21:14;27.00;99.90
16578;DHT22;8401;52.528;13.340;2023-04-10T11:24:04;26.30;99.90
16578;DHT22;8401;52.528;13.340;2023-04-10T11:31:54;27.20;99.90
16578;DHT22;8401;52.528;13.340;2023-04-10T11:34:20;26.80;99.90
16578;DHT22;8401;52.528;13.340;2023-04-10T11:36:46;26.70;99.90
16578;DHT22;8401;52.528;13.340;2023-04-10T11:39:16;26.90;99.90
16578;DHT22;8401;52.528;13.340;2023-04-10T11:41:51;26.90;99.90
16578;DHT22;8401;52.528;13.340;2023-04-10T11:44:32;25.80;99.90
16578;DHT22;8401;52.528;13.340;2023-04-10T11:47:01;24.40;99.90
16578;DHT22;8401;52.528;13.340;2023-04-10T11:49:30;23.30;99.90
16578;DHT22;8401;52.528;13.340;2023-04-10T11:51:56;22.20;99.90
16578;DHT22;8401;52.528;13.340;2023-04-10T11:54:26;21.20;99.90
16578;DHT22;8401;52.528;13.340;2023-04-10T11:57:00;20.70;99.90
16578;DHT22;8401;52.528;13.340;2023-04-10T11:59:27;20.20;99.90
16578;DHT22;8401;52.528;13.340;2023-04-10T12:02:02;20.00;99.90
16578;DHT22;8401;52.528;13.340;2023-04-10T12:04:28;19.80;99.90
16578;DHT22;8401;52.528;13.340;2023-04-10T12:06:56;19.50;99.90
16578;DHT22;8401;52.528;13.340;2023-04-10T12:09:22;19.40;99.90
16578;DHT22;8401;52.528;13.340;2023-04-10T12:11:56;19.20;99.90
16578;DHT22;8401;52.528;13.340;2023-04-10T12:14:32;19.10;99.90
16578;DHT22;8401;52.528;13.340;2023-04-10T12:16:59;19.20;99.90
16578;DHT22;8401;52.528;13.340;2023-04-10T12:19:25;19.50;99.90
16578;DHT22;8401;52.528;13.340;2023-04-10T12:21:51;19.70;99.90
16578;DHT22;8401;52.528;13.340;2023-04-10T12:27:15;19.50;99.90
16578;DHT22;8401;52.528;13.340;2023-04-10T12:29:42;19.60;99.90
16578;DHT22;8401;52.528;13.340;2023-04-10T12:32:08;19.30;99.90
16578;DHT22;8401;52.528;13.340;2023-04-10T12:34:35;19.70;99.90
16578;DHT22;8401;52.528;13.340;2023-04-10T12:37:01;19.60;99.90
16578;DHT22;8401;52.528;13.340;2023-04-10T12:39:28;19.50;99.90
16578;DHT22;8401;52.528;13.340;2023-04-10T12:42:10;19.60;99.90
16578;DHT22;8401;52.528;13.340;2023-04-10T12:44:58;19.70;99.90
16578;DHT22;8401;52.528;13.340;2023-04-10T12:47:25;19.60;99.90
16578;DHT22;8401;52.528;13.340;2023-04-10T12:50:18;19.40;99.90
16578;DHT22;8401;52.528;13.340;2023-04-10T12:53:04;19.30;99.90
16578;DHT22;8401;52.528;13.340;2023-04-10T12:55:34;19.20;99.90
16578;DHT22;8401;52.528;13.340;2023-04-10T12:58:15;19.20;99.90
16578;DHT22;8401;52.528;13.340;2023-04-10T13:00:42;19.00;99.90
16578;DHT22;8401;52.528;13.340;2023-04-10T13:03:08;18.70;99.90
16578;DHT22;8401;52.528;13.340;2023-04-10T13:05:34;18.60;99.90
16578;DHT22;8401;52.528;13.340;2023-04-10T13:08:00;18.60;99.90
16578;DHT22;8401;52.528;13.340;2023-04-10T13:10:25;18.60;99.90
16578;DHT22;8401;52.528;13.340;2023-04-10T13:12:51;18.60;99.90
16578;DHT22;8401;52.528;13.340;2023-04-10T13:15:16;18.60;99.90
16578;DHT22;8401;52.528;13.340;2023-04-10T13:17:42;18.30;99.90
16578;DHT22;8401;52.528;13.340;2023-04-10T13:20:11;18.10;99.90
16578;DHT22;8401;52.528;13.340;2023-04-10T13:22:37;17.90;99.90
16578;DHT22;8401;52.528;13.340;2023-04-10T13:25:03;17.90;99.90
16578;DHT22;8401;52.528;13.340;2023-04-10T13:27:29;18.10;99.90
16578;DHT22;8401;52.528;13.340;2023-04-10T13:29:55;18.30;99.90
16578;DHT22;8401;52.528;13.340;2023-04-10T13:32:20;18.40;99.90
16578;DHT22;8401;52.528;13.340;2023-04-10T13:34:46;18.40;99.90
16578;DHT22;8401;52.528;13.340;2023-04-10T13:37:12;18.30;99.90
16578;DHT22;8401;52.528;13.340;2023-04-10T13:39:37;18.10;99.90
16578;DHT22;8401;52.528;13.340;2023-04-10T13:42:03;17.90;99.90
16578;DHT22;8401;52.528;13.340;2023-04-10T13:44:29;17.90;99.90
16578;DHT22;8401;52.528;13.340;2023-04-10T13:46:54;17.80;99.90
16578;DHT22;8401;52.528;13.340;2023-04-10T13:49:21;17.80;99.90
16578;DHT22;8401;52.528;13.340;2023-04-10T13:51:46;17.90;99.90
16578;DHT22;8401;52.528;13.340;2023-04-10T13:54:12;17.70;99.90
16578;DHT22;8401;52.528;13.340;2023-04-10T13:56:38;17.70;99.90
16578;DHT22;8401;52.528;13.340;2023-04-10T13:59:05;17.80;99.90
16578;DHT22;8401;52.528;13.340;2023-04-10T14:01:31;18.00;99.90
16578;DHT22;8401;52.528;13.340;2023-04-10T14:03:56;18.10;99.90
16578;DHT22;8401;52.528;13.340;2023-04-10T14:06:22;18.20;99.90
16578;DHT22;8401;52.528;13.340;2023-04-10T14:08:48;18.20;99.90
16578;DHT22;8401;52.528;13.340;2023-04-10T14:11:13;18.20;99.90
16578;DHT22;8401;52.528;13.340;2023-04-10T14:13:39;18.10;99.90
16578;DHT22;8401;52.528;13.340;2023-04-10T14:16:05;18.20;99.90
16578;DHT22;8401;52.528;13.340;2023-04-10T14:18:30;18.20;99.90
16578;DHT22;8401;52.528;13.340;2023-04-10T14:20:56;18.20;99.90
16578;DHT22;8401;52.528;13.340;2023-04-10T14:23:22;18.20;99.90
16578;DHT22;8401;52.528;13.340;2023-04-10T14:25:49;18.30;99.90
16578;DHT22;8401;52.528;13.340;2023-04-10T14:28:15;18.10;99.90
16578;DHT22;8401;52.528;13.340;2023-04-10T14:30:47;17.90;99.90
16578;DHT22;8401;52.528;13.340;2023-04-10T14:33:13;18.10;99.90
16578;DHT22;8401;52.528;13.340;2023-04-10T14:35:39;18.50;99.90
16578;DHT22;8401;52.528;13.340;2023-04-10T14:38:05;18.40;99.90
16578;DHT22;8401;52.528;13.340;2023-04-10T14:40:31;18.30;99.90
16578;DHT22;8401;52.528;13.340;2023-04-10T14:42:56;18.10;99.90
16578;DHT22;8401;52.528;13.340;2023-04-10T14:45:22;18.00;99.90
16578;DHT22;8401;52.528;13.340;2023-04-10T14:47:48;18.00;99.90
16578;DHT22;8401;52.528;13.340;2023-04-10T14:50:13;18.20;99.90
16578;DHT22;8401;52.528;13.340;2023-04-10T14:52:39;18.00;99.90
16578;DHT22;8401;52.528;13.340;2023-04-10T14:55:05;18.20;99.90
16578;DHT22;8401;52.528;13.340;2023-04-10T14:57:31;18.10;99.90
16578;DHT22;8401;52.528;13.340;2023-04-10T14:59:56;17.90;99.90
16578;DHT22;8401;52.528;13.340;2023-04-10T15:02:22;17.80;99.90
16578;DHT22;8401;52.528;13.340;2023-04-10T15:04:48;17.80;99.90
16578;DHT22;8401;52.528;13.340;2023-04-10T15:07:13;17.70;99.90
16578;DHT22;8401;52.528;13.340;2023-04-10T15:09:39;17.60;99.90
16578;DHT22;8401;52.528;13.340;2023-04-10T15:12:09;17.60;99.90
16578;DHT22;8401;52.528;13.340;2023-04-10T15:14:35;17.70;99.90
16578;DHT22;8401;52.528;13.340;2023-04-10T15:17:00;17.70;99.90
16578;DHT22;8401;52.528;13.340;2023-04-10T15:19:27;17.80;99.90
16578;DHT22;8401;52.528;13.340;2023-04-10T15:21:53;17.70;99.90
16578;DHT22;8401;52.528;13.340;2023-04-10T15:24:19;17.60;99.90
16578;DHT22;8401;52.528;13.340;2023-04-10T15:26:45;17.50;99.90
16578;DHT22;8401;52.528;13.340;2023-04-10T15:29:12;17.50;99.90
16578;DHT22;8401;52.528;13.340;2023-04-10T15:31:38;17.40;99.90
16578;DHT22;8401;52.528;13.340;2023-04-10T15:34:04;17.40;99.90
16578;DHT22;8401;52.528;13.340;2023-04-10T15:36:30;17.20;99.90
16578;DHT22;8401;52.528;13.340;2023-04-10T15:38:57;17.10;99.90
16578;DHT22;8401;52.528;13.340;2023-04-10T15:41:24;17.00;99.90
16578;DHT22;8401;52.528;13.340;2023-04-10T15:43:52;17.10;99.90
16578;DHT22;8401;52.528;13.340;2023-04-10T15:46:17;17.10;99.90
16578;DHT22;8401;52.528;13.340;2023-04-10T15:48:43;17.10;99.90
16578;DHT22;8401;52.528;13.340;2023-04-10T15:51:10;17.10;99.90
16578;DHT22;8401;52.528;13.340;2023-04-10T15:53:36;17.20;99.90
16578;DHT22;8401;52.528;13.340;2023-04-10T15:56:05;17.20;99.90
16578;DHT22;8401;52.528;13.340;2023-04-10T15:58:32;17.30;99.90
16578;DHT22;8401;52.528;13.340;2023-04-10T16:00:58;17.30;99.90
16578;DHT22;8401;52.528;13.340;2023-04-10T16:03:23;17.30;99.90
16578;DHT22;8401;52.528;13.340;2023-04-10T16:05:51;17.00;99.90
16578;DHT22;8401;52.528;13.340;2023-04-10T16:08:17;16.90;99.90
16578;DHT22;8401;52.528;13.340;2023-04-10T16:10:42;16.90;99.90
16578;DHT22;8401;52.528;13.340;2023-04-10T16:13:08;16.80;99.90
16578;DHT22;8401;52.528;13.340;2023-04-10T16:15:35;16.80;99.90
16578;DHT22;8401;52.528;13.340;2023-04-10T16:18:02;16.70;99.90
16578;DHT22;8401;52.528;13.340;2023-04-10T16:20:28;16.70;99.90
16578;DHT22;8401;52.528;13.340;2023-04-10T16:22:55;16.70;99.90